createdAt,value
2024-05-09T00:00:47.364Z,10.25
2024-05-09T00:03:16.384Z,8.75
2024-05-09T00:05:45.048Z,7.82
2024-05-09T00:08:13.970Z,9.43
2024-05-09T00:10:42.618Z,8.15
2024-05-09T00:13:11.586Z,9.93
2024-05-09T00:15:40.323Z,14.55
2024-05-09T00:18:09.879Z,11.02
2024-05-09T00:20:40.879Z,10.43
2024-05-09T00:23:11.068Z,10.35
2024-05-09T00:25:40.958Z,10.38
2024-05-09T00:28:09.436Z,11.10
2024-05-09T00:30:38.053Z,9.95
2024-05-09T00:33:08.546Z,10.57
2024-05-09T00:38:07.522Z,9.85
2024-05-09T00:40:40.387Z,12.07
2024-05-09T00:43:15.079Z,10.93
2024-05-09T00:45:44.688Z,11.20
2024-05-09T00:48:16.500Z,9.30
2024-05-09T00:50:47.948Z,9.80
2024-05-09T00:53:17.329Z,10.00
2024-05-09T00:55:46.824Z,12.10
2024-05-09T00:58:18.701Z,12.98
2024-05-09T01:00:48.167Z,14.50
2024-05-09T01:03:17.260Z,18.77
2024-05-09T01:05:46.107Z,24.65
2024-05-09T01:08:14.956Z,21.30
2024-05-09T01:10:45.205Z,22.08
2024-05-09T01:13:15.634Z,25.58
2024-05-09T01:15:44.428Z,29.67
2024-05-09T01:18:14.081Z,35.63
2024-05-09T01:20:44.831Z,35.65
2024-05-09T01:23:16.057Z,30.40
2024-05-09T01:25:46.549Z,31.50
2024-05-09T01:28:15.928Z,27.13
2024-05-09T01:30:44.668Z,27.88
2024-05-09T01:33:13.562Z,24.63
2024-05-09T01:35:43.196Z,23.15
2024-05-09T01:38:12.354Z,20.98
2024-05-09T01:40:40.876Z,21.58
2024-05-09T01:43:10.873Z,23.42
2024-05-09T01:45:41.380Z,22.55
2024-05-09T01:48:11.302Z,13.25
2024-05-09T01:50:42.643Z,12.77
2024-05-09T01:53:14.177Z,19.35
2024-05-09T01:55:43.733Z,15.27
2024-05-09T01:58:12.368Z,13.32
2024-05-09T02:00:42.809Z,14.23
2024-05-09T02:03:16.361Z,18.00
2024-05-09T02:05:48.057Z,20.95
2024-05-09T02:08:19.443Z,20.58
2024-05-09T02:10:50.370Z,22.23
2024-05-09T02:13:19.313Z,21.20
2024-05-09T02:15:47.647Z,22.70
2024-05-09T02:18:16.439Z,22.83
2024-05-09T02:20:44.990Z,22.90
2024-05-09T02:23:13.638Z,31.55
2024-05-09T02:25:45.437Z,28.55
2024-05-09T02:28:13.884Z,29.88
2024-05-09T02:30:42.719Z,28.83
2024-05-09T02:33:13.433Z,25.17
2024-05-09T02:35:44.416Z,30.13
2024-05-09T02:38:19.342Z,41.40
2024-05-09T02:40:47.864Z,32.38
2024-05-09T02:43:16.222Z,19.08
2024-05-09T02:45:44.759Z,19.35
2024-05-09T02:48:14.311Z,22.40
2024-05-09T02:50:43.338Z,18.70
2024-05-09T02:53:15.005Z,16.50
2024-05-09T02:58:12.544Z,16.05
2024-05-09T03:00:42.676Z,12.70
2024-05-09T03:03:14.334Z,10.80
2024-05-09T03:05:45.281Z,12.90
2024-05-09T03:08:14.539Z,13.05
2024-05-09T03:10:43.163Z,14.02
2024-05-09T03:13:14.850Z,15.75
2024-05-09T03:15:45.364Z,14.82
2024-05-09T03:18:14.232Z,11.77
2024-05-09T03:20:42.891Z,12.10
2024-05-09T03:23:11.293Z,10.10
2024-05-09T03:25:40.128Z,10.85
2024-05-09T03:28:08.436Z,11.13
2024-05-09T03:30:41.780Z,11.65
2024-05-09T03:33:13.640Z,12.65
2024-05-09T03:35:46.794Z,11.07
2024-05-09T03:38:16.007Z,10.82
2024-05-09T03:40:49.509Z,9.18
2024-05-09T03:43:20.078Z,9.70
2024-05-09T03:45:50.226Z,9.73
2024-05-09T03:48:19.151Z,9.10
2024-05-09T03:50:48.095Z,9.77
2024-05-09T03:53:16.964Z,9.82
2024-05-09T03:55:48.648Z,10.38
2024-05-09T03:58:17.233Z,9.07
2024-05-09T04:00:45.646Z,10.63
2024-05-09T04:03:14.504Z,10.23
2024-05-09T04:05:44.183Z,9.75
2024-05-09T04:08:15.660Z,10.85
2024-05-09T04:10:44.733Z,9.80
2024-05-09T04:13:13.281Z,10.27
2024-05-09T04:15:41.804Z,10.50
2024-05-09T04:18:10.371Z,8.52
2024-05-09T04:20:40.927Z,10.25
2024-05-09T04:23:14.715Z,10.68
2024-05-09T04:25:44.848Z,9.55
2024-05-09T04:28:14.871Z,9.98
2024-05-09T04:30:43.762Z,9.63
2024-05-09T04:33:14.075Z,10.18
2024-05-09T04:35:46.758Z,9.60
2024-05-09T04:38:15.847Z,10.10
2024-05-09T04:40:44.847Z,11.10
2024-05-09T04:43:17.524Z,11.95
2024-05-09T04:45:46.489Z,12.15
2024-05-09T04:48:15.091Z,12.40
2024-05-09T04:50:43.808Z,14.05
2024-05-09T04:53:17.093Z,13.02
2024-05-09T04:55:46.262Z,13.40
2024-05-09T04:58:14.653Z,13.27
2024-05-09T05:00:44.205Z,13.88
2024-05-09T05:03:15.461Z,13.38
2024-05-09T05:05:46.297Z,12.60
2024-05-09T05:08:17.546Z,13.48
2024-05-09T05:13:18.124Z,12.90
2024-05-09T05:15:48.697Z,13.00
2024-05-09T05:18:18.892Z,13.32
2024-05-09T05:20:50.163Z,13.60
2024-05-09T05:23:23.021Z,14.40
2024-05-09T05:25:53.625Z,14.77
2024-05-09T05:28:23.399Z,15.07
2024-05-09T05:30:51.907Z,17.77
2024-05-09T05:33:20.937Z,18.55
2024-05-09T05:35:49.423Z,18.30
2024-05-09T05:38:23.749Z,18.85
2024-05-09T05:40:54.983Z,16.77
2024-05-09T05:43:23.837Z,17.58
2024-05-09T05:45:52.329Z,18.25
2024-05-09T05:48:20.949Z,15.85
2024-05-09T05:50:49.504Z,17.20
2024-05-09T05:53:18.165Z,16.55
2024-05-09T05:55:46.882Z,16.17
2024-05-09T05:58:15.273Z,17.10
2024-05-09T06:00:43.940Z,18.95
2024-05-09T06:03:13.789Z,19.27
2024-05-09T06:05:42.882Z,18.55
2024-05-09T06:08:11.401Z,18.08
2024-05-09T06:10:41.249Z,18.05
2024-05-09T06:13:11.553Z,19.13
2024-05-09T06:15:41.479Z,16.30
2024-05-09T06:18:11.686Z,22.63
2024-05-09T06:20:43.436Z,20.38
2024-05-09T06:23:13.276Z,19.98
2024-05-09T06:25:42.510Z,18.35
2024-05-09T06:28:11.651Z,16.63
2024-05-09T06:30:41.880Z,18.15
2024-05-09T06:33:14.553Z,17.55
2024-05-09T06:35:45.337Z,17.85
2024-05-09T06:38:13.992Z,15.23
2024-05-09T06:40:43.993Z,17.83
2024-05-09T06:43:15.214Z,18.77
2024-05-09T06:45:45.313Z,17.45
2024-05-09T06:48:14.242Z,21.33
2024-05-09T06:50:42.979Z,20.40
2024-05-09T06:53:12.803Z,18.98
2024-05-09T06:55:41.709Z,18.77
2024-05-09T06:58:11.350Z,16.30
2024-05-09T07:00:41.644Z,17.10
2024-05-09T07:03:14.454Z,18.48
2024-05-09T07:05:47.221Z,17.88
2024-05-09T07:08:17.266Z,16.98
2024-05-09T07:10:46.392Z,15.35
2024-05-09T07:13:16.062Z,14.10
2024-05-09T07:15:44.562Z,13.73
2024-05-09T07:18:16.652Z,15.50
2024-05-09T07:20:47.742Z,14.82
2024-05-09T07:23:16.981Z,14.25
2024-05-09T07:25:46.540Z,12.93
2024-05-09T07:28:17.059Z,14.23
2024-05-09T07:30:46.392Z,14.18
2024-05-09T07:33:19.896Z,13.93
2024-05-09T07:35:49.834Z,12.32
2024-05-09T07:38:18.293Z,11.18
2024-05-09T07:40:47.119Z,11.88
2024-05-09T07:43:16.357Z,12.38
2024-05-09T07:45:52.617Z,12.27
2024-05-09T07:50:00.357Z,12.35
2024-05-09T07:53:50.978Z,12.68
2024-05-09T07:56:23.496Z,12.57
2024-05-09T07:58:54.027Z,11.27
2024-05-09T08:01:23.195Z,11.88
2024-05-09T08:03:51.777Z,12.88
2024-05-09T08:06:20.614Z,11.73
2024-05-09T08:08:49.224Z,11.13
2024-05-09T08:11:17.815Z,12.20
2024-05-09T08:13:46.235Z,12.55
2024-05-09T08:16:15.506Z,11.93
2024-05-09T08:18:43.984Z,15.65
2024-05-09T08:21:12.472Z,12.90
2024-05-09T08:23:40.927Z,11.13
2024-05-09T08:26:09.361Z,13.07
2024-05-09T08:28:37.688Z,13.02
2024-05-09T08:31:07.247Z,16.02
2024-05-09T08:33:36.452Z,14.77
2024-05-09T08:36:05.406Z,14.77
2024-05-09T08:38:33.871Z,11.43
2024-05-09T08:41:04.882Z,15.20
2024-05-09T08:43:33.492Z,14.55
2024-05-09T08:46:04.873Z,12.27
2024-05-09T08:51:03.967Z,17.75
2024-05-09T08:53:32.508Z,12.20
2024-05-09T08:56:03.011Z,10.57
2024-05-09T08:58:32.792Z,10.68
2024-05-09T09:01:03.345Z,10.27
2024-05-09T09:03:34.668Z,11.27
2024-05-09T09:06:06.985Z,9.13
2024-05-09T09:08:38.003Z,9.63
2024-05-09T09:11:06.983Z,8.07
2024-05-09T09:13:35.412Z,7.18
2024-05-09T09:16:04.292Z,16.08
2024-05-09T09:18:33.310Z,10.48
2024-05-09T09:21:02.308Z,11.10
2024-05-09T09:23:31.046Z,8.98
2024-05-09T09:26:02.628Z,8.15
2024-05-09T09:28:31.210Z,6.93
2024-05-09T09:31:03.724Z,9.38
2024-05-09T09:33:32.873Z,6.88
2024-05-09T09:36:06.840Z,7.10
2024-05-09T09:38:41.431Z,8.80
2024-05-09T09:41:10.853Z,7.35
2024-05-09T09:43:41.683Z,8.63
2024-05-09T09:46:12.917Z,8.73
2024-05-09T09:51:11.063Z,6.90
2024-05-09T09:53:40.009Z,24.65
2024-05-09T09:56:10.850Z,26.65
2024-05-09T09:58:40.723Z,64.18
2024-05-09T10:01:09.311Z,14.32
2024-05-09T10:03:38.463Z,13.43
2024-05-09T10:06:08.583Z,20.67
2024-05-09T10:08:38.218Z,10.35
2024-05-09T10:11:07.478Z,15.55
2024-05-09T10:13:37.410Z,34.97
2024-05-09T10:16:09.798Z,15.48
2024-05-09T10:18:40.587Z,7.53
2024-05-09T10:21:22.311Z,9.18
2024-05-09T10:24:04.219Z,10.05
2024-05-09T10:26:36.255Z,9.60
2024-05-09T10:29:24.967Z,19.55
2024-05-09T10:31:53.496Z,13.98
2024-05-09T10:34:24.110Z,15.00
2024-05-09T10:36:56.497Z,11.73
2024-05-09T10:39:26.437Z,12.90
2024-05-09T10:41:54.999Z,8.32
2024-05-09T10:44:23.354Z,10.70
2024-05-09T10:46:52.253Z,12.63
2024-05-09T10:49:20.810Z,8.45
2024-05-09T10:51:49.546Z,9.98
2024-05-09T10:54:18.198Z,9.88
2024-05-09T10:56:46.920Z,9.20
2024-05-09T10:59:15.302Z,8.90
2024-05-09T11:01:44.358Z,9.43
2024-05-09T11:04:14.578Z,8.02
2024-05-09T11:06:43.692Z,8.13
2024-05-09T11:09:12.388Z,10.18
2024-05-09T11:11:40.931Z,7.65
2024-05-09T11:14:15.773Z,6.80
2024-05-09T11:16:44.341Z,7.32
2024-05-09T11:19:16.040Z,7.72
2024-05-09T11:21:44.667Z,6.97
2024-05-09T11:24:13.327Z,8.60
2024-05-09T11:26:41.873Z,5.90
2024-05-09T11:29:10.227Z,5.43
2024-05-09T11:31:48.741Z,6.65
2024-05-09T11:34:17.330Z,6.03
2024-05-09T11:36:45.820Z,7.05
2024-05-09T11:39:14.549Z,6.90
2024-05-09T11:41:43.086Z,6.70
2024-05-09T11:44:11.435Z,7.80
2024-05-09T11:46:40.290Z,7.43
2024-05-09T11:49:10.271Z,8.05
2024-05-09T11:51:38.957Z,9.25
2024-05-09T11:54:07.490Z,8.68
2024-05-09T11:56:36.206Z,6.80
2024-05-09T11:59:04.857Z,6.40
2024-05-09T12:01:33.767Z,5.20
2024-05-09T12:04:02.458Z,4.88
2024-05-09T12:06:31.541Z,6.97
2024-05-09T12:09:00.132Z,5.80
2024-05-09T12:11:28.631Z,5.78
2024-05-09T12:13:57.039Z,4.78
2024-05-09T12:16:26.109Z,5.68
2024-05-09T12:18:54.897Z,6.13
2024-05-09T12:21:23.468Z,5.32
2024-05-09T12:23:52.348Z,6.50
2024-05-09T12:26:20.745Z,6.40
2024-05-09T12:28:49.290Z,5.68
2024-05-09T12:31:17.814Z,6.72
2024-05-09T12:33:47.251Z,6.03
2024-05-09T12:36:15.647Z,5.70
2024-05-09T12:38:44.199Z,7.28
2024-05-09T12:41:12.577Z,6.65
2024-05-09T12:43:41.094Z,6.22
2024-05-09T12:46:09.664Z,5.70
2024-05-09T12:48:38.395Z,5.25
2024-05-09T12:51:06.996Z,5.70
2024-05-09T12:53:37.348Z,4.97
2024-05-09T12:56:08.751Z,5.55
2024-05-09T12:58:38.305Z,6.47
2024-05-09T13:01:07.054Z,6.25
2024-05-09T13:03:35.623Z,7.45
2024-05-09T13:06:04.369Z,6.25
2024-05-09T13:08:32.850Z,6.45
2024-05-09T13:11:04.594Z,5.43
2024-05-09T13:13:33.223Z,5.32
2024-05-09T13:16:01.759Z,7.47
2024-05-09T13:18:30.557Z,5.82
2024-05-09T13:20:59.188Z,6.13
2024-05-09T13:23:27.516Z,8.02
2024-05-09T13:25:56.507Z,6.22
2024-05-09T13:28:25.214Z,5.05
2024-05-09T13:30:54.245Z,5.70
2024-05-09T13:33:22.933Z,7.10
2024-05-09T13:35:51.769Z,8.10
2024-05-09T13:38:20.930Z,5.63
2024-05-09T13:40:50.624Z,6.60
2024-05-09T13:43:20.004Z,6.38
2024-05-09T13:45:48.772Z,5.57
2024-05-09T13:48:17.488Z,4.38
2024-05-09T13:50:46.246Z,6.25
2024-05-09T13:53:14.731Z,6.68
2024-05-09T13:55:43.298Z,5.88
2024-05-09T13:58:12.152Z,6.85
2024-05-09T14:00:46.423Z,5.95
2024-05-09T14:03:19.645Z,7.10
2024-05-09T14:05:50.867Z,5.60
2024-05-09T14:08:20.856Z,8.02
2024-05-09T14:10:52.267Z,5.35
2024-05-09T14:13:21.371Z,6.05
2024-05-09T14:15:50.448Z,7.32
2024-05-09T14:18:19.526Z,12.05
2024-05-09T14:20:48.343Z,5.75
2024-05-09T14:23:18.608Z,5.03
2024-05-09T14:25:50.109Z,5.82
2024-05-09T14:28:22.878Z,5.28
2024-05-09T14:30:52.172Z,6.80
2024-05-09T14:33:20.839Z,6.78
2024-05-09T14:35:49.680Z,7.80
2024-05-09T14:38:18.227Z,6.70
2024-05-09T14:40:47.158Z,5.22
2024-05-09T14:43:16.256Z,5.70
2024-05-09T14:45:45.828Z,6.22
2024-05-09T14:48:16.197Z,5.07
2024-05-09T14:50:44.764Z,6.00
2024-05-09T14:53:14.111Z,6.90
2024-05-09T14:55:43.879Z,6.15
2024-05-09T14:58:13.567Z,6.18
2024-05-09T15:00:46.827Z,6.18
2024-05-09T15:03:20.979Z,5.78
2024-05-09T15:05:51.389Z,4.32
2024-05-09T15:08:20.809Z,4.68
2024-05-09T15:10:50.296Z,4.85
2024-05-09T15:13:20.577Z,5.72
2024-05-09T15:15:49.548Z,5.07
2024-05-09T15:18:18.752Z,6.30
2024-05-09T15:20:47.537Z,5.32
2024-05-09T15:23:16.134Z,5.65
2024-05-09T15:25:44.909Z,4.78
2024-05-09T15:28:13.464Z,5.53
2024-05-09T15:30:45.493Z,5.95
2024-05-09T15:33:15.928Z,4.63
2024-05-09T15:35:44.333Z,5.68
2024-05-09T15:38:13.439Z,6.43
2024-05-09T15:40:41.988Z,6.05
2024-05-09T15:43:11.676Z,6.75
2024-05-09T15:45:41.704Z,5.50
2024-05-09T15:48:11.448Z,6.45
2024-05-09T15:50:42.134Z,5.70
2024-05-09T15:53:13.067Z,6.13
2024-05-09T15:55:43.058Z,5.53
2024-05-09T15:58:12.587Z,5.70
2024-05-09T16:00:44.343Z,6.93
2024-05-09T16:03:15.184Z,6.75
2024-05-09T16:05:45.267Z,7.38
2024-05-09T16:08:15.581Z,7.13
2024-05-09T16:10:45.618Z,6.97
2024-05-09T16:13:16.298Z,6.82
2024-05-09T16:15:45.363Z,5.28
2024-05-09T16:18:14.117Z,5.85
2024-05-09T16:20:44.753Z,5.07
2024-05-09T16:23:14.800Z,6.22
2024-05-09T16:25:43.624Z,7.95
2024-05-09T16:28:12.759Z,6.15
2024-05-09T16:30:41.860Z,6.20
2024-05-09T16:33:10.612Z,5.28
2024-05-09T16:35:39.496Z,6.65
2024-05-09T16:38:08.464Z,7.20
2024-05-09T16:40:40.327Z,7.03
2024-05-09T16:43:11.436Z,6.35
2024-05-09T16:45:44.856Z,5.88
2024-05-09T16:48:14.115Z,5.63
2024-05-09T16:50:43.209Z,8.10
2024-05-09T16:53:11.636Z,8.90
2024-05-09T16:55:40.241Z,5.40
2024-05-09T16:58:08.992Z,6.53
2024-05-09T17:00:42.096Z,8.13
2024-05-09T17:03:15.588Z,7.93
2024-05-09T17:05:45.949Z,8.73
2024-05-09T17:08:16.802Z,7.88
2024-05-09T17:10:49.836Z,5.80
2024-05-09T17:13:21.533Z,5.55
2024-05-09T17:15:50.880Z,9.23
2024-05-09T17:18:19.443Z,8.18
2024-05-09T17:20:48.782Z,7.82
2024-05-09T17:23:17.447Z,7.15
2024-05-09T17:25:46.026Z,8.35
2024-05-09T17:28:14.556Z,9.25
2024-05-09T17:30:43.260Z,13.88
2024-05-09T17:33:13.110Z,12.15
2024-05-09T17:35:42.345Z,14.35
2024-05-09T17:38:10.965Z,10.45
2024-05-09T17:40:40.099Z,13.75
2024-05-09T17:43:11.075Z,12.95
2024-05-09T17:45:41.353Z,23.90
2024-05-09T17:48:11.674Z,26.90
2024-05-09T17:50:41.908Z,11.52
2024-05-09T17:53:11.333Z,17.42
2024-05-09T17:55:40.893Z,13.93
2024-05-09T17:58:10.313Z,16.48
2024-05-09T18:00:41.718Z,18.67
2024-05-09T18:03:12.453Z,7.72
2024-05-09T18:05:43.641Z,4.60
2024-05-09T18:08:13.955Z,10.10
2024-05-09T18:10:42.929Z,10.65
2024-05-09T18:13:12.592Z,22.88
2024-05-09T18:15:42.165Z,47.83
2024-05-09T18:18:11.883Z,42.78
2024-05-09T18:20:44.561Z,66.57
2024-05-09T18:23:17.263Z,25.90
2024-05-09T18:25:47.444Z,17.63
2024-05-09T18:28:17.567Z,67.28
2024-05-09T18:30:46.588Z,72.68
2024-05-09T18:33:15.313Z,79.70
2024-05-09T18:35:45.364Z,41.97
2024-05-09T18:38:14.153Z,12.60
2024-05-09T18:40:44.900Z,24.45
2024-05-09T18:43:16.120Z,30.52
2024-05-09T18:45:45.978Z,60.13
2024-05-09T18:48:14.852Z,113.85
2024-05-09T18:50:43.356Z,97.88
2024-05-09T18:53:13.426Z,99.45
2024-05-09T18:55:43.194Z,52.08
2024-05-09T18:58:11.752Z,46.28
2024-05-09T19:00:42.933Z,62.03
2024-05-09T19:03:15.099Z,79.00
2024-05-09T19:05:45.946Z,22.55
2024-05-09T19:08:18.052Z,10.20
2024-05-09T19:10:47.220Z,30.27
2024-05-09T19:13:15.926Z,46.67
2024-05-09T19:15:44.904Z,68.78
2024-05-09T19:18:14.905Z,72.28
2024-05-09T19:20:46.792Z,121.03
2024-05-09T19:23:15.396Z,44.67
2024-05-09T19:25:43.959Z,23.08
2024-05-09T19:28:12.541Z,48.45
2024-05-09T19:30:42.670Z,76.75
2024-05-09T19:33:13.575Z,53.20
2024-05-09T19:35:43.823Z,77.55
2024-05-09T19:38:13.039Z,70.60
2024-05-09T19:40:41.591Z,40.13
2024-05-09T19:43:10.281Z,45.33
2024-05-09T19:45:39.064Z,36.70
2024-05-09T19:48:08.235Z,30.15
2024-05-09T19:50:42.274Z,13.85
2024-05-09T19:53:15.685Z,11.65
2024-05-09T19:55:44.672Z,15.20
2024-05-09T19:58:13.436Z,19.20
2024-05-09T20:00:43.760Z,24.27
2024-05-09T20:03:15.254Z,16.15
2024-05-09T20:05:46.904Z,22.83
2024-05-09T20:08:16.073Z,23.42
2024-05-09T20:10:44.652Z,49.35
2024-05-09T20:13:13.907Z,83.40
2024-05-09T20:15:42.496Z,83.45
2024-05-09T20:18:11.869Z,79.05
2024-05-09T20:20:43.010Z,59.17
2024-05-09T20:23:13.857Z,47.63
2024-05-09T20:25:43.036Z,51.80
2024-05-09T20:28:11.685Z,32.65
2024-05-09T20:30:40.456Z,45.30
2024-05-09T20:33:10.036Z,44.92
2024-05-09T20:35:38.840Z,58.40
2024-05-09T20:38:07.539Z,61.08
2024-05-09T20:40:38.726Z,24.45
2024-05-09T20:43:11.796Z,28.80
2024-05-09T20:45:41.110Z,33.70
2024-05-09T20:48:10.375Z,23.67
2024-05-09T20:50:41.518Z,28.10
2024-05-09T20:53:13.390Z,29.27
2024-05-09T20:58:12.714Z,14.30
2024-05-09T21:00:44.407Z,8.73
2024-05-09T21:03:16.677Z,9.80
2024-05-09T21:08:15.730Z,13.60
2024-05-09T21:10:44.474Z,12.48
2024-05-09T21:13:13.190Z,9.00
2024-05-09T21:15:41.922Z,10.90
2024-05-09T21:18:10.527Z,62.70
2024-05-09T21:20:39.085Z,67.18
2024-05-09T21:23:07.526Z,20.75
2024-05-09T21:25:36.629Z,11.15
2024-05-09T21:28:06.023Z,16.15
2024-05-09T21:30:41.346Z,23.65
2024-05-09T21:33:14.112Z,60.28
2024-05-09T21:35:44.945Z,9.60
2024-05-09T21:38:14.936Z,8.45
2024-05-09T21:40:44.597Z,6.97
2024-05-09T21:43:13.738Z,8.60
2024-05-09T21:45:42.262Z,7.32
2024-05-09T21:48:13.662Z,6.82
2024-05-09T21:50:42.815Z,10.63
2024-05-09T21:53:12.892Z,8.73
2024-05-09T21:55:45.449Z,76.53
2024-05-09T22:00:45.597Z,13.18
2024-05-09T22:03:15.398Z,13.77
2024-05-09T22:05:44.965Z,8.07
2024-05-09T22:08:14.292Z,6.40
2024-05-09T22:10:43.204Z,7.90
2024-05-09T22:13:12.688Z,7.80
2024-05-09T22:15:41.393Z,8.30
2024-05-09T22:18:11.535Z,9.18
2024-05-09T22:20:41.154Z,21.33
2024-05-09T22:23:09.859Z,13.80
2024-05-09T22:25:38.985Z,11.88
2024-05-09T22:28:11.503Z,10.45
2024-05-09T22:30:40.651Z,20.17
2024-05-09T22:33:10.747Z,9.75
2024-05-09T22:35:41.491Z,6.00
2024-05-09T22:38:10.085Z,7.85
2024-05-09T22:40:46.767Z,9.50
2024-05-09T22:43:20.784Z,6.43
2024-05-09T22:45:51.240Z,7.75
2024-05-09T22:48:20.224Z,6.75
2024-05-09T22:50:49.122Z,6.60
2024-05-09T22:53:18.025Z,7.43
2024-05-09T22:55:46.569Z,10.05
2024-05-09T22:58:15.166Z,7.63
2024-05-09T23:00:44.093Z,5.45
2024-05-09T23:03:15.434Z,6.50
2024-05-09T23:05:44.344Z,6.63
2024-05-09T23:08:13.336Z,5.10
2024-05-09T23:10:41.955Z,6.03
2024-05-09T23:13:10.796Z,5.25
2024-05-09T23:15:39.564Z,5.88
2024-05-09T23:18:08.937Z,5.85
2024-05-09T23:20:39.692Z,9.15
2024-05-09T23:23:11.325Z,12.45
2024-05-09T23:25:42.165Z,11.70
2024-05-09T23:28:12.413Z,15.18
2024-05-09T23:30:42.072Z,15.27
2024-05-09T23:33:13.909Z,11.98
2024-05-09T23:35:44.441Z,12.45
2024-05-09T23:38:14.119Z,7.32
2024-05-09T23:40:43.403Z,6.63
2024-05-09T23:43:13.001Z,7.30
2024-05-09T23:45:43.038Z,6.32
2024-05-09T23:48:12.196Z,6.03
2024-05-09T23:50:41.329Z,7.30
2024-05-09T23:53:19.799Z,13.63
2024-05-09T23:55:48.408Z,14.15
2024-05-09T23:58:17.057Z,9.35
